Waimanalo, Hawaii
Current Conditions -  °F | °C
As of 5:57 PM on Thursday 30 Oct 2014 (Local Time) from PHNG Reporting Station
Scattered Clouds Scattered Clouds  
Wind Chill: 79°   Ceiling: Unl
Heat Index: 81°   Visibility: 10mi
Dew Point: 68°   Wind: 14mph
Humidity: 69%   Direction: 70°ENE
Pressure: 30.04"   Gusts: 23mph
Location:  21.34°N, 157.71°W
Report Text: PHNG 310357Z AUTO 07012G20KT 10SM FEW027 SCT033 SCT046 26/20 A3004 RMK AO2 SLP168 T02610200 $
Loading
Personal Weather Stations






























Interactive Weather Map
Tropical Storm Tracking
New forecast layout! Learn more

10-Day Weather Forecast

Advertisements
Track Severe Weather on mobile